Time;durP1;ratioP1;P1;durP2;ratioP2;P2;SDS_P1;SDS_P2;PMS_P1;PMS_P2;Temp;Humidity;BMP_temperature;BMP_pressure;BME280_temperature;BME280_humidity;BME280_pressure;Samples;Min_cycle;Max_cycle;Signal;HPM_P1;HPM_P2
2021/09/06 00:02:07;;;;;;;0.00;0.00;;;;;;;18.17;60.39;102394.84;5034895;28;20029;-90
2021/09/06 00:04:34;;;;;;;1.27;0.30;;;;;;;18.15;60.36;102394.91;5035512;28;20083;-89
2021/09/06 00:07:01;;;;;;;0.10;0.10;;;;;;;18.13;60.13;102394.09;5035641;28;20021;-90
2021/09/06 00:09:27;;;;;;;0.00;0.00;;;;;;;18.12;60.42;102395.00;5034328;28;20112;-90
2021/09/06 00:11:54;;;;;;;0.00;0.00;;;;;;;18.09;60.29;102398.66;5035804;28;20030;-90
2021/09/06 00:14:20;;;;;;;0.00;0.00;;;;;;;18.08;60.44;102404.03;5036298;28;20472;-90
2021/09/06 00:16:47;;;;;;;0.15;0.15;;;;;;;18.07;60.51;102399.59;5035511;28;20080;-88
2021/09/06 00:19:17;;;;;;;3.30;1.65;;;;;;;18.07;60.28;102396.94;5035356;28;20512;-90
2021/09/06 00:21:43;;;;;;;0.00;0.00;;;;;;;18.07;60.75;102403.16;5035795;28;20045;-89
2021/09/06 00:24:10;;;;;;;0.10;0.10;;;;;;;18.07;60.40;102402.28;5034587;28;20029;-89
2021/09/06 00:26:36;;;;;;;0.00;0.00;;;;;;;18.07;60.62;102399.59;5035157;28;20491;-90
2021/09/06 00:29:03;;;;;;;0.10;0.10;;;;;;;18.05;60.05;102391.56;5035406;28;20036;-89
2021/09/06 00:31:29;;;;;;;0.10;0.10;;;;;;;18.03;60.34;102398.81;5035265;28;20115;-91
2021/09/06 00:33:56;;;;;;;0.57;0.57;;;;;;;18.00;60.12;102393.50;5035634;28;20021;-91
2021/09/06 00:36:22;;;;;;;0.10;0.10;;;;;;;18.00;60.51;102398.00;5035584;28;20033;-90
2021/09/06 00:38:49;;;;;;;0.10;0.10;;;;;;;17.97;60.49;102390.94;5034976;28;20065;-89
2021/09/06 00:41:15;;;;;;;3.42;1.05;;;;;;;17.95;60.61;102390.06;5034966;28;20099;-90
2021/09/06 00:43:43;;;;;;;0.10;0.10;;;;;;;17.94;60.82;102383.84;5034910;28;20053;-91
2021/09/06 00:46:10;;;;;;;0.00;0.00;;;;;;;17.93;60.57;102386.50;5034945;28;20099;-91
2021/09/06 00:48:38;;;;;;;0.10;0.10;;;;;;;17.90;60.53;102392.84;5035015;28;20026;-90
2021/09/06 00:51:05;;;;;;;0.03;0.03;;;;;;;17.89;60.33;102387.53;5035065;28;20039;-90
2021/09/06 00:53:32;;;;;;;0.10;0.10;;;;;;;17.86;60.83;102396.53;5034806;28;20057;-89
2021/09/06 00:56:02;;;;;;;0.00;0.00;;;;;;;17.85;60.79;102388.53;5035287;28;20057;-89
2021/09/06 00:58:29;;;;;;;0.13;0.13;;;;;;;17.82;60.56;102399.31;5034112;28;20029;-90
2021/09/06 01:00:55;;;;;;;0.10;0.10;;;;;;;17.79;60.18;102400.28;5034706;28;20496;-90
2021/09/06 01:03:22;;;;;;;0.63;0.63;;;;;;;17.78;60.49;102399.41;5034323;28;20044;-89
2021/09/06 01:05:48;;;;;;;0.10;0.10;;;;;;;17.79;60.70;102397.59;5034069;28;20465;-89
2021/09/06 01:08:15;;;;;;;0.05;0.05;;;;;;;17.77;60.74;102392.28;5034480;28;20041;-90
2021/09/06 01:10:41;;;;;;;0.10;0.10;;;;;;;17.75;61.05;102391.44;5034044;28;20029;-89
2021/09/06 01:13:08;;;;;;;0.68;0.68;;;;;;;17.73;60.75;102393.28;5034252;28;20045;-90
2021/09/06 01:15:34;;;;;;;0.10;0.10;;;;;;;17.73;60.86;102392.38;5034010;28;20513;-89
2021/09/06 01:18:01;;;;;;;0.10;0.10;;;;;;;17.72;60.68;102399.56;5033999;28;20033;-90
2021/09/06 01:20:27;;;;;;;0.10;0.10;;;;;;;17.70;60.83;102398.72;5032957;28;20071;-89
2021/09/06 01:22:54;;;;;;;0.10;0.10;;;;;;;17.69;60.82;102393.41;5032653;28;20038;-89
2021/09/06 01:25:20;;;;;;;0.10;0.10;;;;;;;17.67;60.74;102396.13;5033520;28;20036;-90
2021/09/06 01:27:47;;;;;;;0.03;0.03;;;;;;;17.65;61.04;102392.59;5034028;28;20416;-91
2021/09/06 01:30:14;;;;;;;0.10;0.10;;;;;;;17.63;61.00;102394.41;5033801;28;20116;-90
2021/09/06 01:32:41;;;;;;;0.10;0.10;;;;;;;17.62;61.07;102392.69;5033720;28;20025;-90
2021/09/06 01:35:08;;;;;;;0.10;0.10;;;;;;;17.59;60.99;102393.59;5033556;28;20029;-90
2021/09/06 01:37:36;;;;;;;0.10;0.10;;;;;;;17.60;61.21;102394.50;5034055;28;20029;-90
2021/09/06 01:40:02;;;;;;;2.53;1.45;;;;;;;17.57;60.75;102398.16;5032819;28;20038;-89
2021/09/06 01:42:31;;;;;;;2.03;1.75;;;;;;;17.58;61.20;102407.06;5032845;28;20469;-90
2021/09/06 01:45:02;;;;;;;0.38;0.38;;;;;;;17.55;61.11;102401.78;5033556;28;20052;-89
2021/09/06 01:47:29;;;;;;;0.10;0.10;;;;;;;17.53;60.87;102398.25;5032699;28;20122;-89
2021/09/06 01:49:57;;;;;;;1.88;1.35;;;;;;;17.53;61.11;102398.25;5032838;28;20029;-90
2021/09/06 01:52:24;;;;;;;0.10;0.10;;;;;;;17.50;60.93;102398.34;5031455;28;20032;-89
2021/09/06 01:54:51;;;;;;;0.00;0.00;;;;;;;17.50;61.03;102395.66;5032735;28;20038;-89
2021/09/06 01:57:17;;;;;;;0.00;0.00;;;;;;;17.49;60.94;102393.91;5032789;28;20056;-89
2021/09/06 01:59:44;;;;;;;0.15;0.15;;;;;;;17.46;60.69;102393.03;5032639;28;20494;-89
2021/09/06 02:02:10;;;;;;;0.10;0.10;;;;;;;17.45;61.19;102402.00;5032461;28;20476;-88
2021/09/06 02:04:36;;;;;;;0.85;0.85;;;;;;;17.43;60.75;102403.84;5032770;28;20032;-89
2021/09/06 02:07:03;;;;;;;0.93;0.90;;;;;;;17.42;61.03;102396.72;5032545;28;20580;-89
2021/09/06 02:09:29;;;;;;;0.10;0.10;;;;;;;17.47;60.70;102404.66;5032644;28;20033;-89
2021/09/06 02:11:56;;;;;;;0.10;0.10;;;;;;;17.45;60.69;102404.66;5032812;28;20025;-89
2021/09/06 02:14:22;;;;;;;1.65;0.65;;;;;;;17.42;61.03;102399.41;5032430;28;20040;-90
2021/09/06 02:16:48;;;;;;;0.30;0.30;;;;;;;17.40;61.07;102393.19;5032632;28;20040;-89
2021/09/06 02:19:15;;;;;;;1.10;0.65;;;;;;;17.38;61.09;102397.69;5029662;28;20120;-90
2021/09/06 02:21:41;;;;;;;0.10;0.10;;;;;;;17.35;61.03;102392.41;5038340;22;20502;-84
2021/09/06 02:24:08;;;;;;;0.25;0.25;;;;;;;17.32;61.14;102395.19;5022788;28;20026;-84
2021/09/06 02:26:36;;;;;;;0.15;0.15;;;;;;;17.31;61.22;102398.78;5025371;28;20033;-86
2021/09/06 02:29:04;;;;;;;0.10;0.10;;;;;;;17.31;61.42;102404.13;5030093;28;20055;-86
2021/09/06 02:31:30;;;;;;;0.10;0.10;;;;;;;17.28;61.01;102399.72;5032177;28;20120;-85
2021/09/06 02:33:57;;;;;;;7.18;0.63;;;;;;;17.28;61.68;102398.84;5031939;28;20065;-86
2021/09/06 02:36:24;;;;;;;0.10;0.10;;;;;;;17.26;61.20;102401.56;5031904;28;20109;-85
2021/09/06 02:38:50;;;;;;;0.10;0.10;;;;;;;17.26;61.55;102403.38;5032461;28;20029;-86
2021/09/06 02:41:17;;;;;;;0.10;0.10;;;;;;;17.25;61.29;102407.81;5031893;28;20026;-85
2021/09/06 02:43:43;;;;;;;0.10;0.10;;;;;;;17.24;60.82;102407.88;5032364;28;20029;-84
2021/09/06 02:46:10;;;;;;;0.73;0.73;;;;;;;17.20;61.31;102415.09;5032191;28;20037;-84
2021/09/06 02:48:36;;;;;;;0.57;0.52;;;;;;;17.19;61.47;102415.13;5032310;28;20025;-85
2021/09/06 02:51:03;;;;;;;0.10;0.10;;;;;;;17.18;61.68;102418.72;5030442;28;20033;-85
2021/09/06 02:53:30;;;;;;;0.10;0.10;;;;;;;17.17;61.62;102417.84;5032368;28;20036;-84
2021/09/06 02:55:56;;;;;;;0.43;0.43;;;;;;;17.14;61.32;102418.78;5032005;28;20024;-85
2021/09/06 02:58:23;;;;;;;1.55;0.73;;;;;;;17.14;61.31;102418.78;5031958;28;20030;-85
2021/09/06 03:00:49;;;;;;;0.10;0.10;;;;;;;17.11;61.52;102418.84;5031750;28;20477;-85
2021/09/06 03:03:15;;;;;;;0.10;0.10;;;;;;;17.10;61.36;102417.09;5032207;28;20130;-84
2021/09/06 03:05:42;;;;;;;0.45;0.45;;;;;;;17.09;60.85;102418.00;5031647;28;20385;-85
2021/09/06 03:08:08;;;;;;;0.00;0.00;;;;;;;17.08;61.33;102416.22;5033027;28;20557;-85
2021/09/06 03:10:34;;;;;;;0.10;0.10;;;;;;;17.06;61.23;102419.84;5032515;28;20036;-85
2021/09/06 03:13:01;;;;;;;0.13;0.13;;;;;;;17.05;61.49;102410.09;5032639;28;20462;-85
2021/09/06 03:15:27;;;;;;;0.00;0.00;;;;;;;17.04;61.08;102414.53;5033100;28;20534;-85
2021/09/06 03:17:54;;;;;;;0.45;0.45;;;;;;;17.03;61.51;102419.94;5032792;28;20041;-85
2021/09/06 03:20:20;;;;;;;0.28;0.28;;;;;;;17.01;61.15;102414.63;5033436;28;20045;-85
2021/09/06 03:22:46;;;;;;;0.00;0.00;;;;;;;16.99;61.15;102419.13;5033223;28;20044;-84
2021/09/06 03:25:13;;;;;;;0.20;0.20;;;;;;;16.96;61.48;102413.84;5033015;28;20028;-85
2021/09/06 03:27:40;;;;;;;0.17;0.17;;;;;;;16.95;61.44;102412.09;5032216;28;20034;-84
2021/09/06 03:30:16;;;;;;;0.28;0.28;;;;;;;16.97;61.33;102407.56;5032692;28;20040;-83
2021/09/06 03:32:55;;;;;;;0.80;0.75;;;;;;;16.96;61.49;102409.38;5032876;28;20033;-84
2021/09/06 03:35:30;;;;;;;0.10;0.10;;;;;;;16.93;61.46;102409.41;5032870;28;20038;-84
2021/09/06 03:38:09;;;;;;;0.47;0.47;;;;;;;16.92;61.23;102402.31;5032620;28;20435;-84
2021/09/06 03:40:35;;;;;;;0.00;0.00;;;;;;;16.88;61.55;102397.03;5032725;28;20033;-84
2021/09/06 03:43:01;;;;;;;0.00;0.00;;;;;;;16.87;61.59;102403.28;5016379;28;20018;-86
2021/09/06 03:45:28;;;;;;;0.20;0.20;;;;;;;16.86;61.59;102405.09;5035524;28;20030;-86
2021/09/06 03:47:54;;;;;;;0.40;0.40;;;;;;;16.87;61.54;102400.63;5036575;28;20033;-86
2021/09/06 03:50:20;;;;;;;0.00;0.00;;;;;;;16.86;61.31;102401.53;5051973;22;20496;-89
2021/09/06 03:52:46;;;;;;;0.45;0.45;;;;;;;16.85;61.29;102397.06;5052423;28;20380;-88
2021/09/06 03:55:13;;;;;;;0.10;0.10;;;;;;;16.85;61.21;102405.09;5041113;28;20413;-88
2021/09/06 03:57:39;;;;;;;1.77;0.73;;;;;;;16.84;61.05;102404.25;5051457;28;20082;-89
2021/09/06 04:00:07;;;;;;;0.10;0.10;;;;;;;16.82;60.99;102403.38;5052347;28;20368;-88
2021/09/06 04:02:33;;;;;;;0.13;0.13;;;;;;;16.80;61.49;102414.13;5047494;28;20025;-87
2021/09/06 04:05:00;;;;;;;0.10;0.10;;;;;;;16.78;61.52;102407.91;5051836;28;20029;-88
2021/09/06 04:07:26;;;;;;;0.10;0.10;;;;;;;16.78;61.34;102407.03;5042779;28;20043;-87
2021/09/06 04:09:53;;;;;;;0.10;0.10;;;;;;;16.77;61.75;102403.50;5045430;28;20063;-87
2021/09/06 04:12:20;;;;;;;0.10;0.10;;;;;;;16.76;61.51;102401.72;5049987;28;20036;-86
2021/09/06 04:14:47;;;;;;;0.10;0.10;;;;;;;16.74;61.35;102398.19;5039375;28;20026;-87
2021/09/06 04:17:13;;;;;;;0.10;0.10;;;;;;;16.73;61.19;102407.13;5037761;28;20034;-86
2021/09/06 04:19:39;;;;;;;0.00;0.00;;;;;;;16.72;61.47;102415.19;5034601;28;20038;-87
2021/09/06 04:22:06;;;;;;;1.25;1.20;;;;;;;16.68;61.44;102411.69;5034581;28;20393;-87
2021/09/06 04:24:32;;;;;;;0.10;0.10;;;;;;;16.67;61.85;102423.31;5034416;28;20026;-88
2021/09/06 04:26:59;;;;;;;0.30;0.30;;;;;;;16.65;61.70;102425.16;5035195;28;20056;-90
2021/09/06 04:29:26;;;;;;;0.68;0.68;;;;;;;16.64;61.56;102428.75;5033561;28;21454;-88
2021/09/06 04:31:52;;;;;;;1.33;0.75;;;;;;;16.64;60.98;102423.41;5033567;28;20480;-87
2021/09/06 04:34:19;;;;;;;0.05;0.05;;;;;;;16.62;61.37;102423.44;5034124;28;20033;-87
2021/09/06 04:36:45;;;;;;;0.20;0.20;;;;;;;16.61;61.57;102428.78;5035532;28;20029;-89
2021/09/06 04:39:11;;;;;;;0.20;0.20;;;;;;;16.58;61.73;102429.75;5033859;28;20029;-89
2021/09/06 04:41:38;;;;;;;0.10;0.10;;;;;;;16.57;61.31;102432.44;5033734;28;20480;-88
2021/09/06 04:44:04;;;;;;;0.45;0.45;;;;;;;16.59;61.46;102427.97;5034307;28;20048;-89
2021/09/06 04:46:30;;;;;;;0.20;0.20;;;;;;;16.57;61.54;102435.13;5032783;28;20083;-89
2021/09/06 04:48:57;;;;;;;0.00;0.00;;;;;;;16.55;61.90;102435.16;5034179;28;20432;-91
2021/09/06 04:51:23;;;;;;;0.10;0.10;;;;;;;16.55;62.06;102431.59;5034931;28;20029;-90
2021/09/06 04:53:49;;;;;;;0.10;0.10;;;;;;;16.54;62.05;102427.19;5035610;28;20032;-91
2021/09/06 04:56:16;;;;;;;0.03;0.03;;;;;;;16.54;61.34;102440.56;5045137;28;20041;-90
2021/09/06 04:58:42;;;;;;;0.10;0.10;;;;;;;16.53;62.14;102441.47;5042833;28;20029;-89
2021/09/06 05:01:08;;;;;;;0.08;0.08;;;;;;;16.49;61.85;102446.84;5033424;28;20029;-91
2021/09/06 05:03:34;;;;;;;0.05;0.05;;;;;;;16.54;61.28;102449.44;5035033;28;20067;-91
2021/09/06 05:06:00;;;;;;;0.10;0.10;;;;;;;16.56;61.74;102453.00;5038513;28;20028;-89
2021/09/06 05:08:27;;;;;;;0.00;0.00;;;;;;;16.55;61.59;102450.31;5039117;28;20045;-88
2021/09/06 05:10:54;;;;;;;0.10;0.10;;;;;;;16.54;61.49;102454.81;5034784;28;20105;-86
2021/09/06 05:13:20;;;;;;;0.05;0.05;;;;;;;16.53;61.63;102449.50;5033779;28;20451;-86
2021/09/06 05:15:47;;;;;;;0.10;0.10;;;;;;;16.54;61.73;102453.94;5034787;28;20037;-85
2021/09/06 05:18:13;;;;;;;0.45;0.45;;;;;;;16.56;61.46;102452.09;5034945;28;20029;-87
2021/09/06 05:20:39;;;;;;;0.52;0.52;;;;;;;16.55;61.40;102456.56;5035192;28;20025;-86
2021/09/06 05:23:07;;;;;;;0.57;0.57;;;;;;;16.55;61.73;102450.31;5034728;28;20029;-86
2021/09/06 05:25:33;;;;;;;0.15;0.15;;;;;;;16.59;61.85;102454.72;5034855;28;20033;-88
2021/09/06 05:28:00;;;;;;;0.10;0.10;;;;;;;16.61;61.76;102452.88;5034123;28;20029;-87
2021/09/06 05:30:26;;;;;;;3.65;0.88;;;;;;;16.57;61.90;102457.41;5034096;28;20435;-89
2021/09/06 05:32:53;;;;;;;1.15;1.13;;;;;;;16.58;61.86;102452.94;5034298;28;20381;-86
2021/09/06 05:35:19;;;;;;;0.10;0.10;;;;;;;16.60;62.01;102453.81;5034851;28;20373;-87
2021/09/06 05:37:45;;;;;;;0.13;0.13;;;;;;;16.59;61.84;102462.75;5033983;28;20472;-88
2021/09/06 05:40:12;;;;;;;0.05;0.05;;;;;;;16.63;61.89;102459.09;5034468;28;20136;-88
2021/09/06 05:42:38;;;;;;;0.10;0.10;;;;;;;16.65;61.74;102466.16;5034001;28;20083;-86
2021/09/06 05:45:05;;;;;;;0.10;0.10;;;;;;;16.66;61.47;102469.75;5034120;28;20491;-86
2021/09/06 05:47:31;;;;;;;0.10;0.10;;;;;;;16.70;61.69;102474.13;5033975;28;20380;-85
2021/09/06 05:49:57;;;;;;;0.10;0.10;;;;;;;16.72;61.96;102474.09;5034016;28;20036;-87
2021/09/06 05:52:23;;;;;;;0.08;0.08;;;;;;;16.76;61.72;102478.44;5034204;28;20037;-89
2021/09/06 05:54:49;;;;;;;0.00;0.00;;;;;;;16.80;61.82;102473.03;5034041;28;20037;-90
2021/09/06 05:57:15;;;;;;;0.08;0.08;;;;;;;16.80;62.06;102477.50;5034180;28;20050;-89
2021/09/06 05:59:42;;;;;;;0.15;0.15;;;;;;;16.81;61.82;102480.13;5033965;28;20063;-89
2021/09/06 06:02:08;;;;;;;0.10;0.10;;;;;;;16.85;61.91;102485.41;5034097;28;20384;-89
2021/09/06 06:04:34;;;;;;;0.10;0.10;;;;;;;16.87;61.73;102486.28;5033933;28;20034;-89
2021/09/06 06:07:00;;;;;;;0.10;0.10;;;;;;;16.92;61.45;102487.09;5033721;28;20040;-88
2021/09/06 06:09:26;;;;;;;0.10;0.10;;;;;;;16.94;61.62;102490.63;5034153;28;20091;-88
2021/09/06 06:11:53;;;;;;;0.10;0.10;;;;;;;16.99;61.45;102494.09;5033564;28;20408;-88
2021/09/06 06:14:19;;;;;;;0.00;0.00;;;;;;;17.02;62.05;102495.81;5033802;28;20500;-89
2021/09/06 06:16:45;;;;;;;0.10;0.10;;;;;;;17.05;61.73;102493.09;5033675;28;20071;-86
2021/09/06 06:19:11;;;;;;;0.10;0.10;;;;;;;17.09;61.74;102497.47;5033574;28;20021;-87
2021/09/06 06:21:37;;;;;;;0.10;0.10;;;;;;;17.13;61.49;102510.78;5033539;28;20036;-89
2021/09/06 06:24:04;;;;;;;0.10;0.10;;;;;;;17.18;61.73;102504.44;5033656;28;20412;-88
2021/09/06 06:26:30;;;;;;;0.10;0.10;;;;;;;17.23;61.73;102506.06;5033559;28;20118;-87
2021/09/06 06:28:58;;;;;;;0.10;0.10;;;;;;;17.27;61.91;102510.47;5033792;28;20029;-89
2021/09/06 06:31:24;;;;;;;1.75;0.85;;;;;;;17.36;61.64;102514.75;5033187;28;20021;-89
2021/09/06 06:33:51;;;;;;;0.10;0.10;;;;;;;17.40;61.52;102521.78;5033844;28;20120;-88
2021/09/06 06:36:17;;;;;;;0.10;0.10;;;;;;;17.46;61.75;102516.31;5033816;28;20357;-89
2021/09/06 06:38:44;;;;;;;0.22;0.22;;;;;;;17.52;61.79;102515.28;5033550;28;20025;-88
2021/09/06 06:41:11;;;;;;;0.10;0.10;;;;;;;17.58;62.09;102508.91;5033237;28;20037;-88
2021/09/06 06:43:37;;;;;;;0.10;0.10;;;;;;;17.63;62.02;102507.00;5033650;28;20021;-85
2021/09/06 06:46:03;;;;;;;0.00;0.00;;;;;;;17.70;61.70;102513.09;5033311;28;20559;-86
2021/09/06 06:48:30;;;;;;;0.10;0.10;;;;;;;17.75;62.15;102509.38;5033520;28;20128;-85
2021/09/06 06:50:56;;;;;;;0.10;0.10;;;;;;;17.80;62.13;102503.91;5048606;22;20060;-87
2021/09/06 06:53:22;;;;;;;0.55;0.55;;;;;;;17.90;62.06;102508.13;5032670;28;20029;-88
2021/09/06 06:55:48;;;;;;;0.10;0.10;;;;;;;17.96;62.19;102504.47;5033069;28;20029;-87
2021/09/06 06:58:14;;;;;;;0.17;0.17;;;;;;;18.02;61.73;102507.00;5030283;28;20110;-87
2021/09/06 07:00:41;;;;;;;0.00;0.00;;;;;;;18.09;61.76;102513.09;5030381;28;20446;-87
2021/09/06 07:03:07;;;;;;;0.10;0.10;;;;;;;18.14;62.02;102515.66;5029984;28;20021;-87
2021/09/06 07:05:34;;;;;;;0.30;0.30;;;;;;;18.21;62.20;102519.94;5030475;28;20473;-87
2021/09/06 07:08:00;;;;;;;0.20;0.20;;;;;;;18.29;62.03;102522.44;5029943;28;20120;-88
2021/09/06 07:10:26;;;;;;;0.20;0.20;;;;;;;18.36;62.02;102519.53;5030096;28;20037;-88
2021/09/06 07:12:52;;;;;;;0.10;0.10;;;;;;;18.44;62.13;102519.34;5030580;28;20034;-87
2021/09/06 07:15:18;;;;;;;0.98;0.80;;;;;;;18.52;61.84;102524.53;5030464;28;20358;-87
2021/09/06 07:17:45;;;;;;;0.10;0.10;;;;;;;18.59;62.23;102526.09;5030247;28;20065;-87
2021/09/06 07:20:11;;;;;;;0.20;0.20;;;;;;;18.68;62.11;102523.19;5032254;28;20100;-87
2021/09/06 07:22:38;;;;;;;1.95;1.23;;;;;;;18.80;61.85;102523.75;5033980;28;20030;-88
2021/09/06 07:25:04;;;;;;;0.10;0.10;;;;;;;18.89;61.72;102524.38;5034212;28;20505;-87
2021/09/06 07:27:31;;;;;;;0.10;0.10;;;;;;;18.97;62.07;102520.66;5033769;28;20052;-88
2021/09/06 07:29:57;;;;;;;0.10;0.10;;;;;;;19.07;62.08;102522.13;5033657;28;20388;-89
2021/09/06 07:32:23;;;;;;;0.10;0.10;;;;;;;19.17;61.59;102528.13;5035945;28;20033;-87
2021/09/06 07:34:49;;;;;;;0.30;0.30;;;;;;;19.23;61.47;102527.94;5036367;28;20038;-89
2021/09/06 07:37:15;;;;;;;0.10;0.10;;;;;;;19.32;61.46;102527.66;5036205;28;20040;-89
2021/09/06 07:39:46;;;;;;;0.57;0.57;;;;;;;19.43;61.30;102531.81;5036146;28;20033;-90
2021/09/06 07:42:13;;;;;;;0.20;0.20;;;;;;;19.53;61.50;102536.88;5036397;28;20025;-88
2021/09/06 07:44:39;;;;;;;0.10;0.10;;;;;;;19.63;61.00;102534.78;5035964;28;20036;-89
2021/09/06 07:47:06;;;;;;;0.65;0.65;;;;;;;19.70;61.02;102539.03;5035107;28;20044;-89
2021/09/06 07:49:32;;;;;;;0.10;0.10;;;;;;;19.82;61.50;102542.28;5034655;28;20122;-88
2021/09/06 07:51:58;;;;;;;0.25;0.25;;;;;;;19.91;61.25;102541.13;5035666;28;20443;-88
2021/09/06 07:54:25;;;;;;;0.35;0.35;;;;;;;20.02;61.27;102534.44;5036027;28;20029;-88
2021/09/06 07:56:55;;;;;;;0.85;0.85;;;;;;;20.15;60.64;102547.50;5035102;28;20547;-88
2021/09/06 07:59:21;;;;;;;1.08;1.08;;;;;;;20.23;60.87;102541.88;5035411;28;20431;-88
2021/09/06 08:01:48;;;;;;;0.10;0.10;;;;;;;20.34;60.41;102551.34;5035380;28;20113;-86
2021/09/06 08:04:14;;;;;;;0.63;0.63;;;;;;;20.44;60.60;102556.44;5035934;28;20028;-87
2021/09/06 08:06:41;;;;;;;0.10;0.10;;;;;;;20.55;60.44;102559.63;5035412;28;20127;-88
2021/09/06 08:09:08;;;;;;;1.30;0.75;;;;;;;20.62;60.34;102565.66;5035487;28;20018;-88
2021/09/06 08:11:34;;;;;;;0.15;0.15;;;;;;;20.68;60.53;102568.13;5034640;28;20064;-89
2021/09/06 08:14:00;;;;;;;0.10;0.10;;;;;;;20.75;60.50;102566.13;5034309;28;20037;-89
2021/09/06 08:16:27;;;;;;;5.82;0.52;;;;;;;20.80;60.40;102565.03;5034626;28;20037;-89
2021/09/06 08:18:53;;;;;;;1.45;1.23;;;;;;;20.87;60.21;102565.69;5034085;28;20041;-87
2021/09/06 08:21:19;;;;;;;0.10;0.10;;;;;;;20.95;60.06;102568.13;5062454;22;20056;-95
2021/09/06 08:23:46;;;;;;;0.10;0.10;;;;;;;21.02;59.93;102558.88;5054986;28;20068;-95
2021/09/06 08:26:12;;;;;;;0.50;0.50;;;;;;;21.08;60.27;102568.56;5055901;28;20059;-95
2021/09/06 08:28:38;;;;;;;0.55;0.40;;;;;;;21.14;59.95;102577.28;5055054;28;20130;-95
2021/09/06 08:31:04;;;;;;;3.40;1.77;;;;;;;21.21;59.76;102577.94;5042993;28;20124;-93
2021/09/06 08:33:30;;;;;;;0.10;0.10;;;;;;;21.30;59.47;102580.28;5035532;28;20112;-95
2021/09/06 08:35:57;;;;;;;0.10;0.10;;;;;;;21.39;59.49;102588.97;5036066;28;20031;-96
2021/09/06 08:38:23;;;;;;;0.50;0.50;;;;;;;21.50;59.31;102586.75;5035626;28;20055;-94
2021/09/06 08:40:50;;;;;;;0.45;0.45;;;;;;;21.59;59.28;102591.78;5035270;28;20033;-93
2021/09/06 08:43:17;;;;;;;0.08;0.08;;;;;;;21.71;58.98;102585.06;5035879;28;20033;-96
2021/09/06 08:45:43;;;;;;;1.27;0.90;;;;;;;21.82;58.80;102587.34;5035600;28;20534;-96
2021/09/06 08:48:09;;;;;;;0.30;0.30;;;;;;;21.95;58.70;102588.59;5036391;28;20036;-94
2021/09/06 08:50:35;;;;;;;0.10;0.10;;;;;;;22.07;58.18;102597.13;5036089;28;20021;-94
2021/09/06 08:53:07;;;;;;;0.10;0.10;;;;;;;22.17;57.85;102593.13;5035900;28;20485;-93
2021/09/06 08:55:33;;;;;;;0.17;0.17;;;;;;;22.27;57.84;102594.50;5035648;28;20029;-95
2021/09/06 08:57:59;;;;;;;0.10;0.10;;;;;;;22.39;57.65;102586.84;5035319;28;20127;-96
2021/09/06 09:00:28;;;;;;;0.17;0.17;;;;;;;22.52;57.23;102592.59;5035499;28;20056;-96
2021/09/06 09:02:54;;;;;;;0.38;0.38;;;;;;;22.64;57.27;102589.34;5035197;28;20029;-96
2021/09/06 09:05:20;;;;;;;0.35;0.35;;;;;;;22.75;57.14;102595.19;5035690;28;20069;-91
2021/09/06 09:07:46;;;;;;;0.10;0.10;;;;;;;22.86;56.50;102593.84;5034959;28;20420;-92
2021/09/06 09:10:25;;;;;;;1.05;0.60;;;;;;;23.00;56.80;102587.81;5035178;28;20030;-89
2021/09/06 09:12:51;;;;;;;0.50;0.50;;;;;;;23.13;56.34;102594.44;5035200;28;20034;-89
2021/09/06 09:15:20;;;;;;;0.10;0.10;;;;;;;23.24;55.67;102600.25;5034897;28;20420;-89
2021/09/06 09:17:54;;;;;;;2.17;0.95;;;;;;;23.35;55.84;102597.06;5035226;28;20037;-93
2021/09/06 09:20:20;;;;;;;0.80;0.75;;;;;;;23.39;55.85;102595.06;5034703;28;20037;-94
2021/09/06 09:22:46;;;;;;;0.20;0.20;;;;;;;23.47;56.15;102592.91;5034623;28;20060;-94
2021/09/06 09:25:14;;;;;;;0.40;0.40;;;;;;;23.59;56.07;102589.63;5034976;28;20025;-93
2021/09/06 09:27:43;;;;;;;0.40;0.28;;;;;;;23.71;55.46;102589.97;5034505;28;20084;-92
2021/09/06 09:30:29;;;;;;;0.10;0.10;;;;;;;23.82;55.77;102584.91;5035055;28;20036;-93
2021/09/06 09:33:16;;;;;;;0.43;0.43;;;;;;;24.04;55.10;102581.19;5034480;28;20029;-94
2021/09/06 09:35:42;;;;;;;0.13;0.13;;;;;;;24.03;55.20;102584.84;5033850;28;20034;-91
2021/09/06 09:38:11;;;;;;;0.17;0.17;;;;;;;24.15;54.72;102584.25;5033912;28;20051;-92
2021/09/06 09:40:40;;;;;;;0.10;0.10;;;;;;;24.26;54.57;102582.81;5033675;28;20042;-92
2021/09/06 09:43:07;;;;;;;0.15;0.15;;;;;;;24.36;54.82;102586.81;5032960;28;20083;-92
2021/09/06 09:45:35;;;;;;;0.10;0.10;;;;;;;24.45;54.20;102585.47;5032391;28;20477;-93
2021/09/06 09:48:03;;;;;;;0.10;0.10;;;;;;;24.55;54.20;102586.75;5034518;28;20550;-90
2021/09/06 09:50:32;;;;;;;0.55;0.55;;;;;;;24.68;53.67;102587.03;5034524;28;20452;-88
2021/09/06 09:52:59;;;;;;;0.08;0.08;;;;;;;24.78;53.21;102587.41;5032503;28;20029;-88
2021/09/06 09:55:27;;;;;;;1.10;1.05;;;;;;;24.92;52.83;102578.56;5033304;28;20061;-89
2021/09/06 09:57:55;;;;;;;3.65;1.38;;;;;;;25.02;52.80;102577.97;5033348;28;20025;-88
2021/09/06 10:00:22;;;;;;;0.50;0.50;;;;;;;25.09;51.86;102581.22;5034258;28;20457;-88
2021/09/06 10:02:55;;;;;;;0.22;0.22;;;;;;;25.28;52.74;102574.78;5034183;28;20025;-87
2021/09/06 10:05:27;;;;;;;0.15;0.15;;;;;;;25.36;52.35;102567.13;5034346;28;20029;-88
2021/09/06 10:07:53;;;;;;;0.22;0.22;;;;;;;25.46;51.76;102564.78;5034272;28;20472;-88
2021/09/06 10:10:21;;;;;;;0.30;0.30;;;;;;;25.58;51.46;102565.94;5034041;28;20029;-87
2021/09/06 10:13:11;;;;;;;8.57;0.57;;;;;;;25.63;50.79;102566.53;5033174;28;20030;-88
2021/09/06 10:15:39;;;;;;;0.65;0.65;;;;;;;25.72;50.97;102552.47;5033951;28;20033;-87
2021/09/06 10:18:22;;;;;;;0.38;0.38;;;;;;;25.90;49.61;102555.06;5033930;28;20029;-88
2021/09/06 10:20:50;;;;;;;0.40;0.40;;;;;;;25.99;50.66;102557.25;5033906;28;20496;-87
2021/09/06 10:23:16;;;;;;;0.10;0.10;;;;;;;26.11;49.81;102556.56;5034148;28;20497;-90
2021/09/06 10:25:45;;;;;;;0.15;0.15;;;;;;;26.28;47.83;102558.28;5033662;28;20100;-88
2021/09/06 10:28:16;;;;;;;0.43;0.43;;;;;;;26.38;49.44;102550.47;5033794;28;20033;-87
2021/09/06 10:33:44;;;;;;;0.50;0.50;;;;;;;26.28;48.67;102543.81;5081569;28;20888;-88
2021/09/06 10:36:19;;;;;;;0.15;0.15;;;;;;;26.35;49.14;102542.47;5070868;28;20468;-89
2021/09/06 10:41:28;;;;;;;0.68;0.47;;;;;;;26.50;49.09;102548.81;5086233;28;20395;-88
2021/09/06 10:43:58;;;;;;;3.80;0.80;;;;;;;26.81;47.71;102549.69;5070662;28;20404;-87
2021/09/06 10:46:27;;;;;;;1.35;0.70;;;;;;;26.94;45.75;102547.97;5072258;28;20029;-84
2021/09/06 10:48:55;;;;;;;0.20;0.20;;;;;;;27.06;45.30;102540.84;5071032;28;20111;-82
2021/09/06 10:51:27;;;;;;;0.75;0.75;;;;;;;27.28;46.14;102544.94;5070316;28;20078;-82
2021/09/06 10:53:55;;;;;;;0.40;0.40;;;;;;;27.37;45.62;102538.88;5070721;28;20063;-83
2021/09/06 10:56:25;;;;;;;0.77;0.77;;;;;;;27.53;46.41;102538.78;5063552;28;20051;-83
2021/09/06 10:58:54;;;;;;;1.65;0.55;;;;;;;27.74;46.27;102541.94;5050527;28;20034;-83
2021/09/06 11:01:20;;;;;;;0.82;0.82;;;;;;;27.85;45.30;102543.06;5050306;28;20033;-83
2021/09/06 11:03:47;;;;;;;0.47;0.47;;;;;;;27.95;45.09;102546.91;5065740;28;20028;-83
2021/09/06 11:06:13;;;;;;;0.80;0.65;;;;;;;28.03;44.56;102546.41;5050440;28;20032;-83
2021/09/06 11:08:40;;;;;;;0.43;0.43;;;;;;;28.24;44.02;102544.13;5050879;28;20037;-84
2021/09/06 11:11:08;;;;;;;0.80;0.80;;;;;;;28.30;43.54;102540.97;5050602;28;20473;-83
2021/09/06 11:13:38;;;;;;;0.10;0.10;;;;;;;28.38;42.40;102538.56;5050183;28;20428;-83
2021/09/06 11:16:07;;;;;;;0.80;0.80;;;;;;;28.56;41.80;102546.44;5068425;28;20043;-83
2021/09/06 11:18:36;;;;;;;0.30;0.30;;;;;;;28.65;41.76;102536.75;5052312;28;20063;-86
2021/09/06 11:21:03;;;;;;;0.75;0.75;;;;;;;28.68;42.42;102540.16;5060882;23;20037;-93
2021/09/06 11:26:28;;;;;;;0.10;0.10;;;;;;;28.81;41.94;102531.09;5061081;27;20437;-90
2021/09/06 11:28:56;;;;;;;0.20;0.20;;;;;;;28.72;41.60;102532.63;5056222;28;20060;-91
2021/09/06 11:31:23;;;;;;;0.10;0.10;;;;;;;28.76;40.85;102533.28;5057340;28;20032;-92
2021/09/06 11:34:02;;;;;;;0.30;0.30;;;;;;;28.91;40.39;102532.19;5057727;28;20036;-91